createdAt,value
2023-02-19T00:04:03.963Z,9.20
2023-02-19T00:09:07.304Z,9.20
2023-02-19T00:14:12.228Z,9.30
2023-02-19T00:19:18.232Z,9.30
2023-02-19T00:24:22.894Z,9.40
2023-02-19T00:29:27.149Z,9.40
2023-02-19T00:34:32.830Z,9.40
2023-02-19T00:39:36.163Z,9.50
2023-02-19T00:44:39.659Z,9.50
2023-02-19T00:49:44.390Z,9.60
2023-02-19T00:54:47.676Z,9.60
2023-02-19T00:59:51.060Z,9.70
2023-02-19T01:04:55.829Z,9.70
2023-02-19T01:09:59.140Z,9.70
2023-02-19T01:15:02.300Z,9.70
2023-02-19T01:20:07.601Z,9.70
2023-02-19T01:25:11.201Z,9.80
2023-02-19T01:30:15.199Z,9.80
2023-02-19T01:35:19.995Z,9.70
2023-02-19T01:40:23.372Z,9.80
2023-02-19T01:45:29.956Z,9.90
2023-02-19T01:50:39.922Z,9.80
2023-02-19T01:55:47.189Z,9.80
2023-02-19T02:00:51.869Z,9.80
2023-02-19T02:06:01.769Z,9.80
2023-02-19T02:11:05.645Z,9.70
2023-02-19T02:16:23.029Z,9.70
2023-02-19T02:21:40.330Z,9.70
2023-02-19T02:27:09.923Z,9.70
2023-02-19T02:32:18.416Z,9.70
2023-02-19T02:37:22.076Z,9.70
2023-02-19T02:42:31.208Z,9.60
2023-02-19T02:47:44.982Z,9.70
2023-02-19T02:53:08.801Z,9.70
2023-02-19T02:58:13.131Z,9.60
2023-02-19T03:03:22.409Z,9.60
2023-02-19T03:08:30.692Z,9.60
2023-02-19T03:13:57.664Z,9.50
2023-02-19T03:19:22.194Z,9.50
2023-02-19T03:24:48.079Z,9.50
2023-02-19T03:29:53.977Z,9.30
2023-02-19T03:35:02.830Z,9.30
2023-02-19T03:40:06.641Z,9.30
2023-02-19T03:45:32.961Z,9.20
2023-02-19T03:50:44.704Z,9.20
2023-02-19T03:55:55.210Z,9.20
2023-02-19T04:01:05.194Z,9.30
2023-02-19T04:06:15.563Z,9.20
2023-02-19T04:11:21.427Z,9.20
2023-02-19T04:16:29.764Z,9.20
2023-02-19T04:21:36.127Z,9.10
2023-02-19T04:26:40.290Z,9.10
2023-02-19T04:31:43.769Z,9.00
2023-02-19T04:36:49.646Z,9.00
2023-02-19T04:41:52.862Z,8.90
2023-02-19T04:46:57.176Z,8.90
2023-02-19T04:52:01.956Z,8.90
2023-02-19T04:57:05.321Z,8.90
2023-02-19T05:02:08.697Z,8.80
2023-02-19T05:12:40.763Z,8.70
2023-02-19T05:17:44.112Z,8.60
2023-02-19T05:22:48.778Z,8.60
2023-02-19T05:28:12.264Z,8.70
2023-02-19T05:33:16.437Z,8.60
2023-02-19T05:38:21.602Z,8.60
2023-02-19T05:43:25.001Z,8.60
2023-02-19T05:48:28.422Z,8.50
2023-02-19T05:53:33.527Z,8.50
2023-02-19T05:58:36.939Z,8.40
2023-02-19T06:03:41.181Z,8.40
2023-02-19T06:08:46.574Z,8.40
2023-02-19T06:13:50.669Z,8.50
2023-02-19T06:18:54.879Z,8.50
2023-02-19T06:23:59.496Z,8.50
2023-02-19T06:29:02.914Z,8.50
2023-02-19T06:34:06.437Z,8.50
2023-02-19T06:39:13.038Z,8.50
2023-02-19T06:44:16.368Z,8.40
2023-02-19T06:49:19.694Z,8.40
2023-02-19T06:54:28.080Z,8.40
2023-02-19T06:59:31.426Z,8.40
2023-02-19T07:04:34.800Z,8.40
2023-02-19T07:09:39.600Z,8.20
2023-02-19T07:14:42.830Z,8.20
2023-02-19T07:19:46.123Z,8.10
2023-02-19T07:24:50.744Z,8.00
2023-02-19T07:29:54.038Z,8.00
2023-02-19T07:34:57.603Z,8.00
2023-02-19T07:40:02.545Z,8.00
2023-02-19T07:45:09.863Z,8.10
2023-02-19T07:50:14.169Z,8.10
2023-02-19T07:55:19.007Z,8.20
2023-02-19T08:00:23.065Z,8.30
2023-02-19T08:05:29.136Z,8.40
2023-02-19T08:10:51.330Z,8.40
2023-02-19T08:15:59.638Z,8.50
2023-02-19T08:21:11.728Z,8.50
2023-02-19T08:26:16.905Z,8.50
2023-02-19T08:36:52.019Z,8.30
2023-02-19T08:41:59.972Z,8.30
2023-02-19T08:47:05.858Z,8.20
2023-02-19T08:52:09.087Z,8.30
2023-02-19T08:57:13.831Z,8.30
2023-02-19T09:02:17.112Z,8.40
2023-02-19T09:07:20.660Z,8.50
2023-02-19T09:12:25.811Z,8.50
2023-02-19T09:17:29.311Z,8.70
2023-02-19T09:22:33.772Z,8.80
2023-02-19T09:27:38.461Z,8.70
2023-02-19T09:32:41.940Z,8.70
2023-02-19T09:37:45.494Z,8.70
2023-02-19T09:42:52.337Z,8.60
2023-02-19T09:47:58.388Z,8.70
2023-02-19T09:53:07.101Z,9.00
2023-02-19T09:58:32.084Z,9.20
2023-02-19T10:03:41.527Z,9.10
2023-02-19T10:08:47.499Z,9.00
2023-02-19T10:13:55.372Z,8.70
2023-02-19T10:19:04.908Z,8.50
2023-02-19T10:24:09.629Z,8.60
2023-02-19T10:29:17.664Z,8.50
2023-02-19T10:34:23.562Z,8.40
2023-02-19T10:39:42.605Z,8.20
2023-02-19T10:44:52.886Z,8.40
2023-02-19T10:49:59.816Z,8.90
2023-02-19T10:55:17.080Z,9.50
2023-02-19T11:00:27.636Z,9.90
2023-02-19T11:05:32.996Z,9.80
2023-02-19T11:10:40.702Z,9.80
2023-02-19T11:15:52.359Z,9.70
2023-02-19T11:20:57.756Z,9.80
2023-02-19T11:26:05.148Z,10.30
2023-02-19T11:31:24.018Z,10.50
2023-02-19T11:36:33.307Z,10.40
2023-02-19T11:41:52.636Z,10.20
2023-02-19T11:47:15.051Z,10.10
2023-02-19T11:58:48.247Z,10.20
2023-02-19T12:04:28.857Z,10.00
2023-02-19T12:09:43.416Z,9.90
2023-02-19T12:15:34.170Z,9.80
2023-02-19T12:20:52.079Z,9.90
2023-02-19T12:25:59.735Z,10.40
2023-02-19T12:31:23.270Z,10.50
2023-02-19T12:36:35.950Z,10.40
2023-02-19T12:41:45.935Z,10.30
2023-02-19T12:46:54.119Z,10.00
2023-02-19T12:52:03.115Z,9.80
2023-02-19T12:57:11.539Z,9.60
2023-02-19T13:02:19.634Z,9.60
2023-02-19T13:07:31.385Z,9.80
2023-02-19T13:12:38.302Z,10.00
2023-02-19T13:17:46.235Z,10.00
2023-02-19T13:23:16.946Z,10.00
2023-02-19T13:28:38.738Z,10.40
2023-02-19T13:33:49.553Z,10.80
2023-02-19T13:38:57.311Z,11.20
2023-02-19T13:44:06.193Z,11.20
2023-02-19T13:49:43.322Z,11.10
2023-02-19T13:54:48.201Z,10.80
2023-02-19T13:59:52.356Z,10.60
2023-02-19T14:05:00.477Z,10.50
2023-02-19T14:10:13.058Z,10.40
2023-02-19T14:15:44.043Z,10.40
2023-02-19T14:20:47.610Z,10.20
2023-02-19T14:26:05.134Z,10.00
2023-02-19T14:31:22.434Z,9.70
2023-02-19T14:36:40.678Z,9.70
2023-02-19T14:41:48.203Z,9.50
2023-02-19T14:47:00.030Z,9.40
2023-02-19T14:52:09.544Z,9.30
2023-02-19T14:57:20.546Z,9.20
2023-02-19T15:02:26.078Z,9.10
2023-02-19T15:07:33.256Z,9.10
2023-02-19T15:12:47.165Z,8.90
2023-02-19T15:17:52.324Z,8.90
2023-02-19T15:23:01.048Z,9.00
2023-02-19T15:28:28.636Z,8.90
2023-02-19T15:33:33.327Z,8.80
2023-02-19T15:38:37.641Z,8.80
2023-02-19T15:43:46.234Z,8.60
2023-02-19T15:48:52.384Z,8.50
2023-02-19T15:54:05.550Z,8.40
2023-02-19T15:59:18.826Z,8.40
2023-02-19T16:04:22.113Z,8.40
2023-02-19T16:09:31.002Z,8.30
2023-02-19T16:14:37.765Z,8.30
2023-02-19T16:19:48.218Z,8.20
2023-02-19T16:24:57.174Z,8.10
2023-02-19T16:30:10.605Z,8.00
2023-02-19T16:35:38.262Z,8.00
2023-02-19T16:41:07.288Z,8.00
2023-02-19T16:46:14.099Z,7.90
2023-02-19T16:51:23.510Z,7.80
2023-02-19T16:56:27.074Z,7.80
2023-02-19T17:01:32.191Z,7.70
2023-02-19T17:06:37.848Z,7.50
2023-02-19T17:11:41.260Z,7.50
2023-02-19T17:16:48.341Z,7.40
2023-02-19T17:21:52.941Z,7.40
2023-02-19T17:26:56.383Z,7.50
2023-02-19T17:32:03.249Z,7.50
2023-02-19T17:37:08.405Z,7.50
2023-02-19T17:42:11.675Z,7.40
2023-02-19T17:47:16.479Z,7.40
2023-02-19T17:52:23.211Z,7.40
2023-02-19T17:57:32.804Z,7.40
2023-02-19T18:02:37.717Z,7.30
2023-02-19T18:07:43.740Z,7.20
2023-02-19T18:12:54.791Z,7.20
2023-02-19T18:18:02.693Z,7.10
2023-02-19T18:23:08.983Z,7.00
2023-02-19T18:28:15.734Z,6.80
2023-02-19T18:33:24.748Z,6.80
2023-02-19T18:38:30.270Z,6.70
2023-02-19T18:43:35.032Z,6.70
2023-02-19T18:48:51.745Z,6.60
2023-02-19T18:54:11.060Z,6.60
2023-02-19T18:59:16.309Z,6.60
2023-02-19T19:04:21.331Z,6.60
2023-02-19T19:09:33.885Z,6.60
2023-02-19T19:14:46.520Z,6.70
2023-02-19T19:19:53.820Z,6.60
2023-02-19T19:24:57.194Z,6.60
2023-02-19T19:30:10.826Z,6.60
2023-02-19T19:35:19.791Z,6.60
2023-02-19T19:40:23.100Z,6.60
2023-02-19T19:45:26.496Z,6.60
2023-02-19T19:50:33.094Z,6.50
2023-02-19T19:55:40.551Z,6.50
2023-02-19T20:06:13.970Z,6.60
2023-02-19T20:11:17.390Z,6.70
2023-02-19T20:16:28.373Z,6.70
2023-02-19T20:21:33.416Z,6.70
2023-02-19T20:26:36.852Z,6.70
2023-02-19T20:31:40.909Z,6.80
2023-02-19T20:36:49.889Z,6.70
2023-02-19T20:41:53.453Z,6.60
2023-02-19T20:46:58.167Z,6.50
2023-02-19T20:52:05.982Z,6.60
2023-02-19T20:57:09.608Z,6.60
2023-02-19T21:02:18.699Z,6.50
2023-02-19T21:07:23.456Z,6.50
2023-02-19T21:12:26.689Z,6.40
2023-02-19T21:17:29.974Z,6.40
2023-02-19T21:22:34.700Z,6.40
2023-02-19T21:27:39.721Z,6.40
2023-02-19T21:32:45.007Z,6.40
2023-02-19T21:37:51.919Z,6.40
2023-02-19T21:42:55.265Z,6.30
2023-02-19T21:47:59.052Z,6.30
2023-02-19T21:53:05.590Z,6.30
2023-02-19T21:58:12.125Z,6.30
2023-02-19T22:03:20.978Z,6.30
2023-02-19T22:08:25.652Z,6.40
2023-02-19T22:13:28.907Z,6.40
2023-02-19T22:18:32.254Z,6.50
2023-02-19T22:23:37.044Z,6.30
2023-02-19T22:28:40.520Z,6.30
2023-02-19T22:33:44.094Z,6.30
2023-02-19T22:38:49.637Z,6.30
2023-02-19T22:43:55.697Z,6.30
2023-02-19T22:49:00.198Z,6.30
2023-02-19T22:54:04.969Z,6.40
2023-02-19T22:59:08.362Z,6.30
2023-02-19T23:04:13.924Z,6.30
2023-02-19T23:09:21.370Z,6.40
2023-02-19T23:14:24.723Z,6.40
2023-02-19T23:19:52.916Z,6.40
2023-02-19T23:24:59.755Z,6.40
2023-02-19T23:30:03.077Z,6.40
2023-02-19T23:35:06.686Z,6.40
2023-02-19T23:40:13.219Z,6.40
2023-02-19T23:45:17.499Z,6.30
2023-02-19T23:50:21.176Z,6.40
2023-02-19T23:55:26.285Z,6.40
